GCLA/SPC METAR and TAF weather

Enter ICAO airport designator
Station Type Date Time Source
GCLA METAR 2018/10/22 17:00 UTC NOAA

GCLA 221700Z 07004KT 020V120 9999 SCT035 24/17 Q1014


Station Type Date Time Source
GCLA Decoded METAR 2018/10/22 17:00 UTC NOAA

La Palma / Aeropuerto, Spain (GCLA) 28-37N 017-45W 31M
Oct 22, 2018 - 01:00 PM EDT / 2018.10.22 1700 UTC
Wind: from the ENE (070 degrees) at 5 MPH (4 KT) (direction variable):0
Visibility: greater than 7 mile(s):0
Sky conditions: partly cloudy
Temperature: 75 F (24 C)
Dew Point: 62 F (17 C)
Relative Humidity: 64%
Pressure (altimeter): 29.94 in. Hg (1014 hPa)
ob: GCLA 221700Z 07004KT 020V120 9999 SCT035 24/17 Q1014
cycle: 17

Station Type Date Time Source
GCLA TAF 2018/10/22 15:27 UTC NOAA

TAF GCLA 221400Z 2215/2315 05010KT 9999 SCT035 TX25/2314Z TN20/2305Z PROB40
TEMPO 2215/2221 4500 RA FEW025TCU
BECMG 2218/2220 25005KT


Example: see airport list